Time,TemperatureF,DewpointF,PressureIn,WindDirection,WindDirectionDegrees,WindSpeedMPH,WindSpeedGustMPH,Humidity,HourlyPrecipIn,Conditions,Clouds,dailyrainin,SoftwareType,DateUTC
2013-08-03 00:09:00,60.3,58.0,30.01,NNE,23,0.0,3.0,93,0.00,,,0.00,weatherlink.com 1.10,2013-08-03 05:09:00,
2013-08-03 00:24:00,60.6,58.0,30.01,NNE,33,0.0,1.0,92,0.00,,,0.00,weatherlink.com 1.10,2013-08-03 05:24:00,
2013-08-03 00:39:00,60.4,58.0,30.01,WNW,292,1.0,2.0,92,0.00,,,0.00,weatherlink.com 1.10,2013-08-03 05:39:00,
2013-08-03 00:54:00,59.9,58.0,30.01,NNW,339,0.0,1.0,92,0.00,,,0.00,weatherlink.com 1.10,2013-08-03 05:54:00,
2013-08-03 01:09:00,59.3,57.0,30.01,NNW,333,0.0,0.0,93,0.00,,,0.00,weatherlink.com 1.10,2013-08-03 06:09:00,
2013-08-03 01:24:00,58.9,57.0,30.02,NNW,333,0.0,0.0,93,0.00,,,0.00,weatherlink.com 1.10,2013-08-03 06:24:00,
2013-08-03 01:39:00,58.7,57.0,30.02,NNW,333,0.0,0.0,94,0.00,,,0.00,weatherlink.com 1.10,2013-08-03 06:39:00,
2013-08-03 01:54:00,58.3,57.0,30.02,NNW,333,0.0,0.0,94,0.00,,,0.00,weatherlink.com 1.10,2013-08-03 06:54:00,
2013-08-03 02:09:00,58.2,57.0,30.02,NNW,333,0.0,0.0,94,0.00,,,0.00,weatherlink.com 1.10,2013-08-03 07:09:00,
2013-08-03 02:24:00,57.9,56.0,30.02,NNW,333,0.0,0.0,94,0.00,,,0.00,weatherlink.com 1.10,2013-08-03 07:24:00,
2013-08-03 02:39:00,57.6,56.0,30.03,North,3,0.0,1.0,94,0.00,,,0.00,weatherlink.com 1.10,2013-08-03 07:39:00,
2013-08-03 02:54:00,57.8,56.0,30.03,North,4,0.0,1.0,93,0.00,,,0.00,weatherlink.com 1.10,2013-08-03 07:54:00,
2013-08-03 03:09:00,57.7,56.0,30.03,North,360,0.0,0.0,94,0.00,,,0.00,weatherlink.com 1.10,2013-08-03 08:09:00,
2013-08-03 03:24:00,57.4,55.0,30.03,North,360,0.0,0.0,93,0.00,,,0.00,weatherlink.com 1.10,2013-08-03 08:24:00,
2013-08-03 03:39:00,57.1,55.0,30.03,North,360,0.0,0.0,94,0.01,,,0.01,weatherlink.com 1.10,2013-08-03 08:39:00,
2013-08-03 03:54:00,57.1,55.0,30.03,North,360,0.0,0.0,94,0.01,,,0.01,weatherlink.com 1.10,2013-08-03 08:54:00,
2013-08-03 04:09:00,57.0,55.0,30.03,North,360,0.0,0.0,93,0.01,,,0.01,weatherlink.com 1.10,2013-08-03 09:09:00,
2013-08-03 04:24:00,56.6,55.0,30.03,North,360,0.0,0.0,93,0.01,,,0.01,weatherlink.com 1.10,2013-08-03 09:24:00,
2013-08-03 04:39:00,55.9,55.0,30.04,North,360,0.0,0.0,95,0.00,,,0.01,weatherlink.com 1.10,2013-08-03 09:39:00,
2013-08-03 04:54:00,55.9,54.0,30.03,NNW,330,0.0,0.0,94,0.00,,,0.01,weatherlink.com 1.10,2013-08-03 09:54:00,
2013-08-03 05:09:00,56.0,54.0,30.04,WNW,292,0.0,0.0,94,0.00,,,0.01,weatherlink.com 1.10,2013-08-03 10:09:00,
2013-08-03 05:24:00,55.3,54.0,30.05,WNW,291,0.0,0.0,94,0.00,,,0.01,weatherlink.com 1.10,2013-08-03 10:24:00,
2013-08-03 05:39:00,54.8,53.0,30.05,WNW,291,0.0,0.0,95,0.00,,,0.01,weatherlink.com 1.10,2013-08-03 10:39:00,
2013-08-03 05:54:00,54.6,54.0,30.06,WNW,292,0.0,0.0,96,0.00,,,0.01,weatherlink.com 1.10,2013-08-03 10:54:00,
2013-08-03 06:09:00,54.9,54.0,30.07,WNW,291,0.0,0.0,96,0.00,,,0.01,weatherlink.com 1.10,2013-08-03 11:09:00,
2013-08-03 06:24:00,54.8,54.0,30.07,WNW,291,0.0,0.0,96,0.00,,,0.01,weatherlink.com 1.10,2013-08-03 11:24:00,
2013-08-03 06:39:00,54.7,54.0,30.07,NW,306,0.0,0.0,96,0.00,,,0.01,weatherlink.com 1.10,2013-08-03 11:39:00,
2013-08-03 06:54:00,55.3,54.0,30.08,NW,306,0.0,0.0,96,0.00,,,0.01,weatherlink.com 1.10,2013-08-03 11:54:00,
2013-08-03 07:09:00,55.9,55.0,30.07,NW,306,0.0,0.0,95,0.00,,,0.01,weatherlink.com 1.10,2013-08-03 12:09:00,
2013-08-03 07:24:00,56.4,55.0,30.07,NW,306,0.0,0.0,94,0.00,,,0.01,weatherlink.com 1.10,2013-08-03 12:24:00,
2013-08-03 07:39:00,57.2,55.0,30.07,NW,316,0.0,0.0,93,0.00,,,0.01,weatherlink.com 1.10,2013-08-03 12:39:00,
2013-08-03 07:54:00,58.2,55.0,30.08,NNW,328,0.0,0.0,90,0.00,,,0.01,weatherlink.com 1.10,2013-08-03 12:54:00,
2013-08-03 08:10:00,59.0,56.0,30.09,West,274,0.0,0.0,89,0.00,,,0.01,weatherlink.com 1.10,2013-08-03 13:10:00,
2013-08-03 08:25:00,60.4,57.0,30.10,North,356,0.0,3.0,89,0.00,,,0.01,weatherlink.com 1.10,2013-08-03 13:25:00,
2013-08-03 08:40:00,61.7,58.0,30.10,North,9,0.0,4.0,87,0.00,,,0.01,weatherlink.com 1.10,2013-08-03 13:40:00,
2013-08-03 08:55:00,64.0,59.0,30.11,NNW,327,0.0,3.0,83,0.00,,,0.01,weatherlink.com 1.10,2013-08-03 13:55:00,
2013-08-03 09:10:00,65.4,59.0,30.11,NW,326,0.0,2.0,80,0.00,,,0.01,weatherlink.com 1.10,2013-08-03 14:10:00,
2013-08-03 09:25:00,66.9,59.0,30.11,NW,312,1.0,2.0,75,0.00,,,0.01,weatherlink.com 1.10,2013-08-03 14:25:00,
2013-08-03 09:40:00,67.7,59.0,30.11,North,11,1.0,3.0,74,0.00,,,0.01,weatherlink.com 1.10,2013-08-03 14:40:00,
2013-08-03 09:55:00,69.2,59.0,30.12,North,9,0.0,4.0,69,0.00,,,0.01,weatherlink.com 1.10,2013-08-03 14:55:00,
2013-08-03 10:10:00,71.1,58.0,30.12,ENE,78,0.0,3.0,64,0.00,,,0.01,weatherlink.com 1.10,2013-08-03 15:10:00,
2013-08-03 10:25:00,71.3,57.0,30.12,NW,317,0.0,4.0,61,0.00,,,0.01,weatherlink.com 1.10,2013-08-03 15:25:00,
2013-08-03 10:40:00,72.9,59.0,30.12,NE,42,1.0,3.0,61,0.00,,,0.01,weatherlink.com 1.10,2013-08-03 15:40:00,
2013-08-03 10:55:00,73.3,57.0,30.13,NW,320,0.0,3.0,56,0.00,,,0.01,weatherlink.com 1.10,2013-08-03 15:55:00,
2013-08-03 11:10:00,74.3,57.0,30.13,NNE,13,0.0,0.0,55,0.00,,,0.01,weatherlink.com 1.10,2013-08-03 16:10:00,
2013-08-03 11:25:00,74.6,56.0,30.13,WNW,288,0.0,3.0,52,0.00,,,0.01,weatherlink.com 1.10,2013-08-03 16:25:00,
2013-08-03 11:40:00,73.1,54.0,30.12,SW,227,0.0,4.0,52,0.00,,,0.01,weatherlink.com 1.10,2013-08-03 16:40:00,
2013-08-03 11:55:00,74.3,55.0,30.12,East,94,1.0,4.0,52,0.00,,,0.01,weatherlink.com 1.10,2013-08-03 16:55:00,
2013-08-03 12:25:00,74.2,54.0,30.12,West,267,0.0,3.0,49,0.00,,,0.01,weatherlink.com 1.10,2013-08-03 17:25:00,
2013-08-03 12:40:00,76.0,54.0,30.13,West,276,1.0,6.0,47,0.00,,,0.01,weatherlink.com 1.10,2013-08-03 17:40:00,
2013-08-03 12:55:00,75.9,54.0,30.14,ENE,78,0.0,4.0,46,0.00,,,0.01,weatherlink.com 1.10,2013-08-03 17:55:00,
2013-08-03 13:10:00,76.3,56.0,30.14,North,8,2.0,3.0,49,0.00,,,0.01,weatherlink.com 1.10,2013-08-03 18:10:00,
2013-08-03 13:25:00,76.4,54.0,30.13,NNW,338,1.0,5.0,46,0.00,,,0.01,weatherlink.com 1.10,2013-08-03 18:25:00,
2013-08-03 13:40:00,75.8,54.0,30.12,NNW,331,0.0,5.0,47,0.00,,,0.01,weatherlink.com 1.10,2013-08-03 18:40:00,
2013-08-03 13:55:00,75.8,56.0,30.12,NNE,17,0.0,5.0,51,0.00,,,0.01,weatherlink.com 1.10,2013-08-03 18:55:00,
2013-08-03 14:10:00,75.3,55.0,30.12,West,261,1.0,4.0,49,0.00,,,0.01,weatherlink.com 1.10,2013-08-03 19:10:00,
2013-08-03 14:25:00,75.3,55.0,30.12,North,356,0.0,6.0,49,0.00,,,0.01,weatherlink.com 1.10,2013-08-03 19:25:00,
2013-08-03 14:40:00,75.0,54.0,30.13,North,358,1.0,4.0,49,0.00,,,0.01,weatherlink.com 1.10,2013-08-03 19:40:00,
2013-08-03 14:55:00,74.6,55.0,30.12,North,354,1.0,6.0,50,0.00,,,0.01,weatherlink.com 1.10,2013-08-03 19:55:00,
2013-08-03 15:10:00,74.4,56.0,30.12,ESE,103,2.0,3.0,53,0.00,,,0.01,weatherlink.com 1.10,2013-08-03 20:10:00,
2013-08-03 15:25:00,75.5,55.0,30.12,NNE,18,1.0,6.0,50,0.00,,,0.01,weatherlink.com 1.10,2013-08-03 20:25:00,
2013-08-03 15:40:00,75.5,55.0,30.12,NE,44,0.0,4.0,49,0.00,,,0.01,weatherlink.com 1.10,2013-08-03 20:40:00,
2013-08-03 15:55:00,76.5,55.0,30.12,NE,38,4.0,5.0,47,0.00,,,0.01,weatherlink.com 1.10,2013-08-03 20:55:00,
2013-08-03 16:11:00,77.2,55.0,30.12,ESE,102,2.0,5.0,47,0.00,,,0.01,weatherlink.com 1.10,2013-08-03 21:11:00,
2013-08-03 16:26:00,77.4,54.0,30.11,ENE,68,3.0,5.0,44,0.00,,,0.01,weatherlink.com 1.10,2013-08-03 21:26:00,
2013-08-03 16:41:00,77.0,55.0,30.11,NNE,22,1.0,5.0,46,0.00,,,0.01,weatherlink.com 1.10,2013-08-03 21:41:00,
2013-08-03 16:56:00,76.9,54.0,30.11,NW,316,1.0,8.0,46,0.00,,,0.01,weatherlink.com 1.10,2013-08-03 21:56:00,
2013-08-03 17:10:00,77.2,53.0,30.11,NE,36,4.0,7.0,43,0.00,,,0.01,weatherlink.com 1.10,2013-08-03 22:10:00,
2013-08-03 17:25:00,77.1,54.0,30.11,NW,309,0.0,6.0,45,0.00,,,0.01,weatherlink.com 1.10,2013-08-03 22:25:00,
2013-08-03 17:41:00,76.8,53.0,30.11,NW,323,1.0,6.0,44,0.00,,,0.01,weatherlink.com 1.10,2013-08-03 22:41:00,
2013-08-03 17:56:00,77.0,53.0,30.11,North,3,1.0,5.0,43,0.00,,,0.01,weatherlink.com 1.10,2013-08-03 22:56:00,
2013-08-03 18:11:00,76.5,54.0,30.10,NNW,348,2.0,6.0,45,0.00,,,0.01,weatherlink.com 1.10,2013-08-03 23:11:00,
2013-08-03 18:26:00,76.9,53.0,30.10,WNW,290,0.0,4.0,44,0.00,,,0.01,weatherlink.com 1.10,2013-08-03 23:26:00,
2013-08-03 18:41:00,76.6,54.0,30.10,West,278,2.0,3.0,45,0.00,,,0.01,weatherlink.com 1.10,2013-08-03 23:41:00,
2013-08-03 18:56:00,76.0,54.0,30.10,NNE,12,0.0,3.0,46,0.00,,,0.01,weatherlink.com 1.10,2013-08-03 23:56:00,
2013-08-03 19:11:00,74.6,54.0,30.10,NNE,17,0.0,2.0,49,0.00,,,0.01,weatherlink.com 1.10,2013-08-04 00:11:00,
2013-08-03 19:26:00,73.4,56.0,30.10,NNW,347,0.0,3.0,54,0.00,,,0.01,weatherlink.com 1.10,2013-08-04 00:26:00,
2013-08-03 19:41:00,72.5,57.0,30.10,West,273,0.0,1.0,58,0.00,,,0.01,weatherlink.com 1.10,2013-08-04 00:41:00,
2013-08-03 19:56:00,71.8,57.0,30.11,NNW,343,0.0,1.0,59,0.00,,,0.01,weatherlink.com 1.10,2013-08-04 00:56:00,
2013-08-03 20:10:00,70.3,57.0,30.11,NNW,344,0.0,1.0,63,0.00,,,0.01,weatherlink.com 1.10,2013-08-04 01:10:00,
2013-08-03 20:26:00,69.0,58.0,30.11,NNW,344,0.0,0.0,67,0.00,,,0.01,weatherlink.com 1.10,2013-08-04 01:26:00,
2013-08-03 20:41:00,67.5,58.0,30.11,NNW,344,0.0,0.0,71,0.00,,,0.01,weatherlink.com 1.10,2013-08-04 01:41:00,
2013-08-03 20:56:00,66.7,58.0,30.12,NNW,344,0.0,0.0,73,0.00,,,0.01,weatherlink.com 1.10,2013-08-04 01:56:00,
2013-08-03 21:11:00,65.8,57.0,30.12,NNW,343,0.0,0.0,73,0.00,,,0.01,weatherlink.com 1.10,2013-08-04 02:11:00,
2013-08-03 21:26:00,65.0,56.0,30.12,NNW,343,0.0,0.0,73,0.00,,,0.01,weatherlink.com 1.10,2013-08-04 02:26:00,
2013-08-03 21:41:00,64.3,56.0,30.12,NNW,343,0.0,0.0,75,0.00,,,0.01,weatherlink.com 1.10,2013-08-04 02:41:00,
2013-08-03 21:56:00,64.0,56.0,30.13,NNW,343,0.0,0.0,76,0.00,,,0.01,weatherlink.com 1.10,2013-08-04 02:56:00,
2013-08-03 22:11:00,63.7,56.0,30.14,NNW,343,0.0,0.0,76,0.00,,,0.01,weatherlink.com 1.10,2013-08-04 03:11:00,
2013-08-03 22:28:00,63.0,56.0,30.14,NNW,343,0.0,0.0,78,0.00,,,0.01,weatherlink.com 1.10,2013-08-04 03:28:00,
2013-08-03 22:41:00,62.7,56.0,30.14,NNW,343,0.0,0.0,78,0.00,,,0.01,weatherlink.com 1.10,2013-08-04 03:41:00,
2013-08-03 22:56:00,62.1,56.0,30.15,NNW,343,0.0,0.0,79,0.00,,,0.01,weatherlink.com 1.10,2013-08-04 03:56:00,
2013-08-03 23:11:00,61.6,55.0,30.15,NNW,343,0.0,0.0,78,0.00,,,0.01,weatherlink.com 1.10,2013-08-04 04:11:00,
2013-08-03 23:26:00,61.4,55.0,30.16,NNW,343,0.0,0.0,79,0.00,,,0.01,weatherlink.com 1.10,2013-08-04 04:26:00,
2013-08-03 23:41:00,61.1,55.0,30.15,NNW,343,0.0,0.0,79,0.00,,,0.01,weatherlink.com 1.10,2013-08-04 04:41:00,
2013-08-03 23:56:00,61.3,55.0,30.16,NNW,343,0.0,0.0,79,0.00,,,0.01,weatherlink.com 1.10,2013-08-04 04:56:00,